sensor_id;sensor_type;location;lat;lon;timestamp;pressure;altitude;pressure_sealevel;temperature;humidity
41712;BME280;27399;51.516;13.670;2022-11-20T00:00:49;100179.19;;;0.97;71.16
41712;BME280;27399;51.516;13.670;2022-11-20T00:03:15;100184.75;;;1.08;71.56
41712;BME280;27399;51.516;13.670;2022-11-20T00:05:40;100184.91;;;0.81;72.13
41712;BME280;27399;51.516;13.670;2022-11-20T00:08:06;100183.28;;;0.86;72.22
41712;BME280;27399;51.516;13.670;2022-11-20T00:10:31;100184.31;;;0.92;71.45
41712;BME280;27399;51.516;13.670;2022-11-20T00:12:58;100178.97;;;0.88;72.27
41712;BME280;27399;51.516;13.670;2022-11-20T00:15:23;100178.44;;;0.68;72.51
41712;BME280;27399;51.516;13.670;2022-11-20T00:17:49;100186.69;;;0.51;73.05
41712;BME280;27399;51.516;13.670;2022-11-20T00:20:15;100177.13;;;0.52;72.51
41712;BME280;27399;51.516;13.670;2022-11-20T00:22:40;100175.03;;;0.72;71.50
41712;BME280;27399;51.516;13.670;2022-11-20T00:25:06;100179.66;;;0.81;70.62
41712;BME280;27399;51.516;13.670;2022-11-20T00:27:32;100174.41;;;0.81;70.52
41712;BME280;27399;51.516;13.670;2022-11-20T00:29:58;100173.63;;;0.85;70.25
41712;BME280;27399;51.516;13.670;2022-11-20T00:32:23;100180.72;;;0.89;71.64
41712;BME280;27399;51.516;13.670;2022-11-20T00:34:49;100185.13;;;0.56;72.45
41712;BME280;27399;51.516;13.670;2022-11-20T00:37:14;100177.97;;;0.83;71.21
41712;BME280;27399;51.516;13.670;2022-11-20T00:39:40;100176.25;;;0.85;72.18
41712;BME280;27399;51.516;13.670;2022-11-20T00:42:05;100180.13;;;0.66;71.91
41712;BME280;27399;51.516;13.670;2022-11-20T00:44:31;100181.19;;;0.72;71.10
41712;BME280;27399;51.516;13.670;2022-11-20T00:46:57;100181.31;;;0.77;71.03
41712;BME280;27399;51.516;13.670;2022-11-20T00:49:22;100184.13;;;0.85;71.57
41712;BME280;27399;51.516;13.670;2022-11-20T00:51:48;100165.84;;;0.56;71.47
41712;BME280;27399;51.516;13.670;2022-11-20T00:54:13;100169.16;;;0.49;72.82
41712;BME280;27399;51.516;13.670;2022-11-20T00:56:39;100180.38;;;0.44;72.22
41712;BME280;27399;51.516;13.670;2022-11-20T00:59:05;100178.44;;;0.68;72.26
41712;BME280;27399;51.516;13.670;2022-11-20T01:01:31;100185.28;;;0.63;71.85
41712;BME280;27399;51.516;13.670;2022-11-20T01:03:58;100189.50;;;0.27;72.25
41712;BME280;27399;51.516;13.670;2022-11-20T01:06:33;100191.09;;;0.52;72.13
41712;BME280;27399;51.516;13.670;2022-11-20T01:09:02;100199.53;;;0.40;72.00
41712;BME280;27399;51.516;13.670;2022-11-20T01:11:31;100186.00;;;0.57;72.12
41712;BME280;27399;51.516;13.670;2022-11-20T01:13:58;100193.47;;;0.43;72.73
41712;BME280;27399;51.516;13.670;2022-11-20T01:16:27;100198.59;;;0.38;73.44
41712;BME280;27399;51.516;13.670;2022-11-20T01:18:55;100191.06;;;0.51;72.83
41712;BME280;27399;51.516;13.670;2022-11-20T01:21:23;100197.53;;;0.03;73.99
41712;BME280;27399;51.516;13.670;2022-11-20T01:23:49;100188.34;;;0.17;73.61
41712;BME280;27399;51.516;13.670;2022-11-20T01:26:17;100198.91;;;0.19;73.75
41712;BME280;27399;51.516;13.670;2022-11-20T01:28:43;100186.84;;;-0.04;73.69
41712;BME280;27399;51.516;13.670;2022-11-20T01:31:33;100193.13;;;0.32;73.06
41712;BME280;27399;51.516;13.670;2022-11-20T01:34:01;100199.44;;;0.37;72.29
41712;BME280;27399;51.516;13.670;2022-11-20T01:36:29;100190.25;;;0.53;71.71
41712;BME280;27399;51.516;13.670;2022-11-20T01:38:57;100188.59;;;0.55;71.44
41712;BME280;27399;51.516;13.670;2022-11-20T01:41:25;100194.75;;;0.27;71.95
41712;BME280;27399;51.516;13.670;2022-11-20T01:44:11;100181.84;;;-0.25;73.31
41712;BME280;27399;51.516;13.670;2022-11-20T01:46:39;100191.66;;;0.11;72.71
41712;BME280;27399;51.516;13.670;2022-11-20T01:49:11;100193.09;;;0.00;72.84
41712;BME280;27399;51.516;13.670;2022-11-20T01:51:45;100188.28;;;0.15;72.07
41712;BME280;27399;51.516;13.670;2022-11-20T01:54:18;100193.56;;;-0.41;73.45
41712;BME280;27399;51.516;13.670;2022-11-20T01:56:47;100188.72;;;-0.28;73.86
41712;BME280;27399;51.516;13.670;2022-11-20T01:59:16;100194.56;;;-0.08;73.22
41712;BME280;27399;51.516;13.670;2022-11-20T02:01:43;100193.53;;;-0.42;73.55
41712;BME280;27399;51.516;13.670;2022-11-20T02:04:09;100159.47;;;-0.13;72.48
41712;BME280;27399;51.516;13.670;2022-11-20T02:06:40;100193.94;;;-0.01;72.66
41712;BME280;27399;51.516;13.670;2022-11-20T02:09:06;100188.69;;;-0.01;72.20
41712;BME280;27399;51.516;13.670;2022-11-20T02:11:31;100181.97;;;-0.20;72.87
41712;BME280;27399;51.516;13.670;2022-11-20T02:13:58;100184.66;;;0.10;72.17
41712;BME280;27399;51.516;13.670;2022-11-20T02:16:35;100188.44;;;-0.09;72.40
41712;BME280;27399;51.516;13.670;2022-11-20T02:19:04;100186.72;;;0.21;72.58
41712;BME280;27399;51.516;13.670;2022-11-20T02:21:46;100179.22;;;0.04;73.12
41712;BME280;27399;51.516;13.670;2022-11-20T02:24:18;100179.97;;;0.00;72.72
41712;BME280;27399;51.516;13.670;2022-11-20T02:29:37;100175.06;;;-0.18;72.92
41712;BME280;27399;51.516;13.670;2022-11-20T02:32:05;100165.19;;;-0.25;72.96
41712;BME280;27399;51.516;13.670;2022-11-20T02:34:31;100162.81;;;-0.47;73.63
41712;BME280;27399;51.516;13.670;2022-11-20T02:36:59;100167.09;;;-0.21;73.13
41712;BME280;27399;51.516;13.670;2022-11-20T02:39:26;100163.38;;;-0.28;73.09
41712;BME280;27399;51.516;13.670;2022-11-20T02:41:55;100161.44;;;-0.06;73.22
41712;BME280;27399;51.516;13.670;2022-11-20T02:44:21;100151.88;;;-0.33;72.91
41712;BME280;27399;51.516;13.670;2022-11-20T02:46:47;100150.63;;;-0.17;72.91
41712;BME280;27399;51.516;13.670;2022-11-20T02:49:12;100146.31;;;0.14;72.19
41712;BME280;27399;51.516;13.670;2022-11-20T02:51:38;100148.59;;;-0.55;73.89
41712;BME280;27399;51.516;13.670;2022-11-20T02:54:03;100147.34;;;-0.39;73.91
41712;BME280;27399;51.516;13.670;2022-11-20T02:56:30;100148.44;;;-0.32;73.66
41712;BME280;27399;51.516;13.670;2022-11-20T02:58:55;100146.28;;;-0.15;72.78
41712;BME280;27399;51.516;13.670;2022-11-20T03:01:21;100149.31;;;-0.59;73.91
41712;BME280;27399;51.516;13.670;2022-11-20T03:03:47;100148.34;;;-0.34;72.52
41712;BME280;27399;51.516;13.670;2022-11-20T03:06:15;100150.19;;;-0.31;72.70
41712;BME280;27399;51.516;13.670;2022-11-20T03:08:41;100130.16;;;-0.29;72.79
41712;BME280;27399;51.516;13.670;2022-11-20T03:11:07;100148.59;;;-0.26;73.13
41712;BME280;27399;51.516;13.670;2022-11-20T03:13:33;100148.09;;;-0.41;73.39
41712;BME280;27399;51.516;13.670;2022-11-20T03:16:12;100148.97;;;-0.70;73.26
41712;BME280;27399;51.516;13.670;2022-11-20T03:18:39;100138.84;;;-0.30;72.71
41712;BME280;27399;51.516;13.670;2022-11-20T03:21:05;100147.75;;;-0.54;73.20
41712;BME280;27399;51.516;13.670;2022-11-20T03:23:32;100143.78;;;-0.41;72.71
41712;BME280;27399;51.516;13.670;2022-11-20T03:26:20;100136.22;;;-0.30;72.24
41712;BME280;27399;51.516;13.670;2022-11-20T03:28:49;100131.91;;;-0.29;72.25
41712;BME280;27399;51.516;13.670;2022-11-20T03:31:17;100134.41;;;-0.33;72.19
41712;BME280;27399;51.516;13.670;2022-11-20T03:33:43;100134.97;;;-0.43;72.60
41712;BME280;27399;51.516;13.670;2022-11-20T03:36:12;100133.00;;;-0.50;72.76
41712;BME280;27399;51.516;13.670;2022-11-20T03:38:38;100129.63;;;-0.46;72.37
41712;BME280;27399;51.516;13.670;2022-11-20T03:41:06;100130.84;;;-0.35;72.41
41712;BME280;27399;51.516;13.670;2022-11-20T03:43:33;100124.53;;;-0.41;72.33
41712;BME280;27399;51.516;13.670;2022-11-20T03:45:58;100126.72;;;-0.26;72.00
41712;BME280;27399;51.516;13.670;2022-11-20T03:48:24;100122.72;;;-0.71;72.31
41712;BME280;27399;51.516;13.670;2022-11-20T03:50:51;100126.16;;;-0.45;72.05
41712;BME280;27399;51.516;13.670;2022-11-20T03:53:17;100121.34;;;-0.60;72.21
41712;BME280;27399;51.516;13.670;2022-11-20T03:55:42;100120.16;;;-0.97;72.88
41712;BME280;27399;51.516;13.670;2022-11-20T03:58:09;100117.19;;;-0.53;72.66
41712;BME280;27399;51.516;13.670;2022-11-20T04:00:35;100114.53;;;-1.08;74.15
41712;BME280;27399;51.516;13.670;2022-11-20T04:03:02;100114.88;;;-0.71;72.87
41712;BME280;27399;51.516;13.670;2022-11-20T04:05:28;100104.31;;;-0.74;72.71
41712;BME280;27399;51.516;13.670;2022-11-20T04:07:53;100111.91;;;-0.55;72.26
41712;BME280;27399;51.516;13.670;2022-11-20T04:10:19;100111.69;;;-0.61;72.42
41712;BME280;27399;51.516;13.670;2022-11-20T04:12:45;100108.75;;;-0.72;72.42
41712;BME280;27399;51.516;13.670;2022-11-20T04:15:11;100110.97;;;-0.57;72.02
41712;BME280;27399;51.516;13.670;2022-11-20T04:17:37;100108.78;;;-0.98;73.05
41712;BME280;27399;51.516;13.670;2022-11-20T04:20:03;100107.25;;;-0.91;73.13
41712;BME280;27399;51.516;13.670;2022-11-20T04:22:28;100106.81;;;-1.05;73.17
41712;BME280;27399;51.516;13.670;2022-11-20T04:24:54;100098.84;;;-0.81;72.94
41712;BME280;27399;51.516;13.670;2022-11-20T04:27:20;100106.19;;;-0.69;72.82
41712;BME280;27399;51.516;13.670;2022-11-20T04:29:45;100106.13;;;-0.72;72.67
41712;BME280;27399;51.516;13.670;2022-11-20T04:32:11;100101.75;;;-0.71;71.46
41712;BME280;27399;51.516;13.670;2022-11-20T04:34:37;100101.06;;;-0.93;72.45
41712;BME280;27399;51.516;13.670;2022-11-20T04:37:02;100098.16;;;-1.02;72.42
41712;BME280;27399;51.516;13.670;2022-11-20T04:39:28;100102.75;;;-0.68;71.47
41712;BME280;27399;51.516;13.670;2022-11-20T04:41:53;100085.13;;;-1.01;72.20
41712;BME280;27399;51.516;13.670;2022-11-20T04:44:39;100103.38;;;-0.76;71.22
41712;BME280;27399;51.516;13.670;2022-11-20T04:47:05;100099.25;;;-0.68;70.80
41712;BME280;27399;51.516;13.670;2022-11-20T04:49:30;100108.78;;;-0.98;71.63
41712;BME280;27399;51.516;13.670;2022-11-20T04:51:57;100100.13;;;-0.95;71.33
41712;BME280;27399;51.516;13.670;2022-11-20T04:54:23;100108.72;;;-0.99;72.18
41712;BME280;27399;51.516;13.670;2022-11-20T04:56:49;100111.66;;;-0.90;71.79
41712;BME280;27399;51.516;13.670;2022-11-20T04:59:15;100108.84;;;-1.22;72.78
41712;BME280;27399;51.516;13.670;2022-11-20T05:01:41;100105.06;;;-1.04;72.70
41712;BME280;27399;51.516;13.670;2022-11-20T05:04:06;100101.69;;;-0.74;71.96
41712;BME280;27399;51.516;13.670;2022-11-20T05:06:32;100096.47;;;-1.00;72.41
41712;BME280;27399;51.516;13.670;2022-11-20T05:08:58;100101.91;;;-0.94;72.21
41712;BME280;27399;51.516;13.670;2022-11-20T05:11:24;100094.34;;;-1.12;72.80
41712;BME280;27399;51.516;13.670;2022-11-20T05:13:51;100099.09;;;-1.26;73.45
41712;BME280;27399;51.516;13.670;2022-11-20T05:16:21;100091.59;;;-1.67;74.35
41712;BME280;27399;51.516;13.670;2022-11-20T05:18:47;100090.34;;;-1.28;73.61
41712;BME280;27399;51.516;13.670;2022-11-20T05:21:13;100098.19;;;-1.28;73.42
41712;BME280;27399;51.516;13.670;2022-11-20T05:23:40;100094.75;;;-1.51;73.31
41712;BME280;27399;51.516;13.670;2022-11-20T05:26:07;100091.91;;;-1.32;73.11
41712;BME280;27399;51.516;13.670;2022-11-20T05:28:33;100097.66;;;-1.68;73.98
41712;BME280;27399;51.516;13.670;2022-11-20T05:31:11;100098.19;;;-1.28;73.96
41712;BME280;27399;51.516;13.670;2022-11-20T05:33:39;100098.78;;;-1.61;74.26
41712;BME280;27399;51.516;13.670;2022-11-20T05:36:05;100072.66;;;-1.60;74.46
41712;BME280;27399;51.516;13.670;2022-11-20T05:38:32;100094.69;;;-1.53;74.31
41712;BME280;27399;51.516;13.670;2022-11-20T05:41:14;100087.72;;;-1.28;74.10
41712;BME280;27399;51.516;13.670;2022-11-20T05:43:41;100095.34;;;-1.34;73.34
41712;BME280;27399;51.516;13.670;2022-11-20T05:46:08;100095.09;;;-1.66;74.23
41712;BME280;27399;51.516;13.670;2022-11-20T05:48:34;100077.63;;;-1.67;73.75
41712;BME280;27399;51.516;13.670;2022-11-20T05:51:02;100088.28;;;-1.37;73.29
41712;BME280;27399;51.516;13.670;2022-11-20T05:53:28;100076.41;;;-1.53;73.10
41712;BME280;27399;51.516;13.670;2022-11-20T05:55:58;100065.38;;;-1.44;72.96
41712;BME280;27399;51.516;13.670;2022-11-20T05:58:24;100071.78;;;-1.34;73.35
41712;BME280;27399;51.516;13.670;2022-11-20T06:00:50;100063.63;;;-1.18;72.60
41712;BME280;27399;51.516;13.670;2022-11-20T06:03:15;100067.38;;;-1.35;73.29
41712;BME280;27399;51.516;13.670;2022-11-20T06:05:41;100057.31;;;-1.25;72.94
41712;BME280;27399;51.516;13.670;2022-11-20T06:08:07;100063.38;;;-1.26;72.68
41712;BME280;27399;51.516;13.670;2022-11-20T06:10:32;100073.56;;;-1.33;73.22
41712;BME280;27399;51.516;13.670;2022-11-20T06:12:58;100071.41;;;-1.19;73.14
41712;BME280;27399;51.516;13.670;2022-11-20T06:15:24;100071.41;;;-0.94;72.63
41712;BME280;27399;51.516;13.670;2022-11-20T06:17:53;100072.97;;;-0.99;72.41
41712;BME280;27399;51.516;13.670;2022-11-20T06:20:19;100073.09;;;-0.94;71.99
41712;BME280;27399;51.516;13.670;2022-11-20T06:22:45;100069.47;;;-1.25;72.75
41712;BME280;27399;51.516;13.670;2022-11-20T06:25:11;100070.75;;;-1.39;73.09
41712;BME280;27399;51.516;13.670;2022-11-20T06:27:36;100065.94;;;-1.27;72.75
41712;BME280;27399;51.516;13.670;2022-11-20T06:30:03;100065.00;;;-1.29;72.70
41712;BME280;27399;51.516;13.670;2022-11-20T06:32:28;100069.69;;;-1.19;72.28
41712;BME280;27399;51.516;13.670;2022-11-20T06:34:54;100071.09;;;-1.29;72.73
41712;BME280;27399;51.516;13.670;2022-11-20T06:37:20;100072.53;;;-1.38;73.14
41712;BME280;27399;51.516;13.670;2022-11-20T06:39:45;100068.88;;;-1.18;71.92
41712;BME280;27399;51.516;13.670;2022-11-20T06:42:11;100082.44;;;-1.02;72.01
41712;BME280;27399;51.516;13.670;2022-11-20T06:44:36;100082.00;;;-0.89;71.65
41712;BME280;27399;51.516;13.670;2022-11-20T06:47:02;100074.19;;;-1.15;72.11
41712;BME280;27399;51.516;13.670;2022-11-20T06:49:28;100070.81;;;-1.12;72.16
41712;BME280;27399;51.516;13.670;2022-11-20T06:51:53;100066.97;;;-1.22;71.77
41712;BME280;27399;51.516;13.670;2022-11-20T06:54:19;100072.72;;;-1.06;72.18
41712;BME280;27399;51.516;13.670;2022-11-20T06:56:47;100063.38;;;-1.26;72.64
41712;BME280;27399;51.516;13.670;2022-11-20T06:59:13;100060.63;;;-1.29;72.71
41712;BME280;27399;51.516;13.670;2022-11-20T07:01:39;100062.31;;;-1.05;72.36
41712;BME280;27399;51.516;13.670;2022-11-20T07:04:04;100067.34;;;-1.37;72.53
41712;BME280;27399;51.516;13.670;2022-11-20T07:06:30;100071.13;;;-1.01;72.37
41712;BME280;27399;51.516;13.670;2022-11-20T07:08:56;100075.47;;;-1.29;72.95
41712;BME280;27399;51.516;13.670;2022-11-20T07:11:22;100069.69;;;-1.19;73.24
41712;BME280;27399;51.516;13.670;2022-11-20T07:13:48;100076.41;;;-1.00;72.84
41712;BME280;27399;51.516;13.670;2022-11-20T07:16:14;100080.50;;;-1.08;72.42
41712;BME280;27399;51.516;13.670;2022-11-20T07:18:39;100071.38;;;-1.47;73.69
41712;BME280;27399;51.516;13.670;2022-11-20T07:21:10;100066.44;;;-1.12;73.31
41712;BME280;27399;51.516;13.670;2022-11-20T07:23:36;100066.81;;;-1.01;72.75
41712;BME280;27399;51.516;13.670;2022-11-20T07:26:04;100066.44;;;-1.12;73.29
41712;BME280;27399;51.516;13.670;2022-11-20T07:28:29;100067.88;;;-0.94;73.03
41712;BME280;27399;51.516;13.670;2022-11-20T07:30:55;100068.63;;;-0.98;72.70
41712;BME280;27399;51.516;13.670;2022-11-20T07:33:20;100069.56;;;-0.96;72.89
41712;BME280;27399;51.516;13.670;2022-11-20T07:35:46;100061.41;;;-1.05;73.79
41712;BME280;27399;51.516;13.670;2022-11-20T07:38:12;100068.00;;;-0.62;72.53
41712;BME280;27399;51.516;13.670;2022-11-20T07:40:38;100061.34;;;-0.80;72.20
41712;BME280;27399;51.516;13.670;2022-11-20T07:43:03;100069.41;;;-1.28;73.79
41712;BME280;27399;51.516;13.670;2022-11-20T07:45:29;100067.41;;;-0.82;72.98
41712;BME280;27399;51.516;13.670;2022-11-20T07:47:54;100068.88;;;-0.90;72.38
41712;BME280;27399;51.516;13.670;2022-11-20T07:50:20;100068.00;;;-0.62;72.14
41712;BME280;27399;51.516;13.670;2022-11-20T07:52:46;100059.78;;;-0.45;71.28
41712;BME280;27399;51.516;13.670;2022-11-20T07:55:12;100064.47;;;-0.35;71.50
41712;BME280;27399;51.516;13.670;2022-11-20T07:57:38;100060.16;;;-0.62;70.91
41712;BME280;27399;51.516;13.670;2022-11-20T08:00:05;100058.94;;;-0.44;70.44
41712;BME280;27399;51.516;13.670;2022-11-20T08:02:32;100050.03;;;-0.50;69.85
41712;BME280;27399;51.516;13.670;2022-11-20T08:04:58;100041.25;;;-0.23;70.33
41712;BME280;27399;51.516;13.670;2022-11-20T08:07:23;100047.00;;;-0.64;71.27
41712;BME280;27399;51.516;13.670;2022-11-20T08:09:49;100040.47;;;-0.19;70.13
41712;BME280;27399;51.516;13.670;2022-11-20T08:12:19;100041.72;;;-0.06;69.50
41712;BME280;27399;51.516;13.670;2022-11-20T08:15:04;100036.19;;;0.15;69.46
41712;BME280;27399;51.516;13.670;2022-11-20T08:17:30;100041.16;;;0.05;69.85
41712;BME280;27399;51.516;13.670;2022-11-20T08:19:56;100044.22;;;0.22;69.13
41712;BME280;27399;51.516;13.670;2022-11-20T08:22:22;100042.75;;;0.01;68.60
41712;BME280;27399;51.516;13.670;2022-11-20T08:24:47;100042.94;;;-0.25;69.16
41712;BME280;27399;51.516;13.670;2022-11-20T08:27:13;100055.22;;;0.08;68.92
41712;BME280;27399;51.516;13.670;2022-11-20T08:29:39;100055.69;;;-0.07;68.60
41712;BME280;27399;51.516;13.670;2022-11-20T08:32:04;100047.09;;;-0.01;68.72
41712;BME280;27399;51.516;13.670;2022-11-20T08:34:30;100045.69;;;0.10;68.95
41712;BME280;27399;51.516;13.670;2022-11-20T08:36:55;100053.69;;;0.17;68.38
41712;BME280;27399;51.516;13.670;2022-11-20T08:39:21;100051.50;;;0.00;68.71
41712;BME280;27399;51.516;13.670;2022-11-20T08:41:47;100047.03;;;0.29;68.42
41712;BME280;27399;51.516;13.670;2022-11-20T08:44:12;100048.78;;;0.29;69.10
41712;BME280;27399;51.516;13.670;2022-11-20T08:46:40;100046.88;;;-0.09;68.84
41712;BME280;27399;51.516;13.670;2022-11-20T08:49:11;100047.00;;;0.26;69.45
41712;BME280;27399;51.516;13.670;2022-11-20T08:51:38;100045.72;;;0.45;68.36
41712;BME280;27399;51.516;13.670;2022-11-20T08:54:04;100045.19;;;0.57;67.33
41712;BME280;27399;51.516;13.670;2022-11-20T08:56:30;100044.03;;;0.48;68.90
41712;BME280;27399;51.516;13.670;2022-11-20T08:58:56;100043.09;;;0.79;67.49
41712;BME280;27399;51.516;13.670;2022-11-20T09:01:22;100040.91;;;0.63;67.33
41712;BME280;27399;51.516;13.670;2022-11-20T09:03:49;100042.94;;;0.73;67.77
41712;BME280;27399;51.516;13.670;2022-11-20T09:06:15;100038.53;;;1.08;67.01
41712;BME280;27399;51.516;13.670;2022-11-20T09:08:41;100033.66;;;1.24;66.58
41712;BME280;27399;51.516;13.670;2022-11-20T09:11:08;100038.69;;;1.53;66.50
41712;BME280;27399;51.516;13.670;2022-11-20T09:13:34;100041.75;;;1.33;65.85
41712;BME280;27399;51.516;13.670;2022-11-20T09:16:03;100035.50;;;1.68;65.75
41712;BME280;27399;51.516;13.670;2022-11-20T09:18:30;100032.66;;;1.59;66.45
41712;BME280;27399;51.516;13.670;2022-11-20T09:21:02;100036.50;;;1.75;65.72
41712;BME280;27399;51.516;13.670;2022-11-20T09:23:30;100031.78;;;1.58;66.16
41712;BME280;27399;51.516;13.670;2022-11-20T09:25:56;100035.13;;;1.92;66.11
41712;BME280;27399;51.516;13.670;2022-11-20T09:28:25;100025.69;;;2.02;65.20
41712;BME280;27399;51.516;13.670;2022-11-20T09:30:51;100024.41;;;2.27;64.91
41712;BME280;27399;51.516;13.670;2022-11-20T09:33:17;100015.81;;;2.38;65.01
41712;BME280;27399;51.516;13.670;2022-11-20T09:35:43;100005.38;;;2.42;65.32
41712;BME280;27399;51.516;13.670;2022-11-20T09:38:10;100003.03;;;2.59;65.42
41712;BME280;27399;51.516;13.670;2022-11-20T09:40:39;100007.75;;;2.79;64.66
41712;BME280;27399;51.516;13.670;2022-11-20T09:45:39;99997.56;;;3.02;64.76
41712;BME280;27399;51.516;13.670;2022-11-20T09:48:24;100000.19;;;3.01;64.15
41712;BME280;27399;51.516;13.670;2022-11-20T09:56:06;99990.03;;;3.25;64.42
41712;BME280;27399;51.516;13.670;2022-11-20T09:58:55;99984.78;;;3.29;64.07
41712;BME280;27399;51.516;13.670;2022-11-20T10:01:29;99993.91;;;3.52;64.21
41712;BME280;27399;51.516;13.670;2022-11-20T10:04:03;99980.53;;;3.38;63.97
41712;BME280;27399;51.516;13.670;2022-11-20T10:06:32;99977.91;;;3.38;64.36
41712;BME280;27399;51.516;13.670;2022-11-20T10:09:04;99971.81;;;3.43;64.07
41712;BME280;27399;51.516;13.670;2022-11-20T10:11:56;99972.31;;;3.15;64.27
41712;BME280;27399;51.516;13.670;2022-11-20T10:14:47;99953.69;;;3.01;64.50
41712;BME280;27399;51.516;13.670;2022-11-20T10:20:56;99962.53;;;3.08;64.97
41712;BME280;27399;51.516;13.670;2022-11-20T10:31:03;99947.56;;;3.04;64.46
41712;BME280;27399;51.516;13.670;2022-11-20T10:33:33;99958.03;;;3.01;64.90
41712;BME280;27399;51.516;13.670;2022-11-20T10:41:26;99953.44;;;2.87;64.58
41712;BME280;27399;51.516;13.670;2022-11-20T10:44:19;99949.09;;;2.89;64.33
41712;BME280;27399;51.516;13.670;2022-11-20T10:47:05;99945.72;;;3.00;64.63
41712;BME280;27399;51.516;13.670;2022-11-20T10:49:37;99941.78;;;2.70;64.81
41712;BME280;27399;51.516;13.670;2022-11-20T10:54:48;99933.53;;;3.08;64.84
41712;BME280;27399;51.516;13.670;2022-11-20T11:02:32;99940.94;;;3.34;63.92
41712;BME280;27399;51.516;13.670;2022-11-20T11:05:08;99942.03;;;3.51;63.39
41712;BME280;27399;51.516;13.670;2022-11-20T11:07:38;99940.19;;;3.43;64.22
41712;BME280;27399;51.516;13.670;2022-11-20T11:10:46;99934.53;;;3.85;63.31
41712;BME280;27399;51.516;13.670;2022-11-20T11:13:25;99933.72;;;3.93;63.85
41712;BME280;27399;51.516;13.670;2022-11-20T11:15:52;99920.56;;;3.96;62.68
41712;BME280;27399;51.516;13.670;2022-11-20T11:18:29;99942.44;;;3.85;63.06
41712;BME280;27399;51.516;13.670;2022-11-20T11:20:56;99934.91;;;4.23;63.27
41712;BME280;27399;51.516;13.670;2022-11-20T11:23:43;99928.66;;;4.14;62.55
41712;BME280;27399;51.516;13.670;2022-11-20T11:26:22;99927.69;;;4.05;62.73
41712;BME280;27399;51.516;13.670;2022-11-20T11:29:00;99925.06;;;4.06;63.07
41712;BME280;27399;51.516;13.670;2022-11-20T11:31:28;99923.56;;;4.33;62.65
41712;BME280;27399;51.516;13.670;2022-11-20T11:34:07;99926.78;;;4.02;62.91
41712;BME280;27399;51.516;13.670;2022-11-20T11:36:34;99929.34;;;3.93;63.70
41712;BME280;27399;51.516;13.670;2022-11-20T11:39:02;99929.19;;;3.79;63.48
41712;BME280;27399;51.516;13.670;2022-11-20T11:41:31;99920.56;;;3.96;63.63
41712;BME280;27399;51.516;13.670;2022-11-20T11:44:04;99919.81;;;4.11;63.34
41712;BME280;27399;51.516;13.670;2022-11-20T11:46:58;99918.16;;;4.21;63.39
41712;BME280;27399;51.516;13.670;2022-11-20T11:49:24;99910.34;;;4.28;63.47
41712;BME280;27399;51.516;13.670;2022-11-20T11:52:10;99911.06;;;4.15;63.41
41712;BME280;27399;51.516;13.670;2022-11-20T11:54:53;99901.00;;;3.75;63.90
41712;BME280;27399;51.516;13.670;2022-11-20T11:57:32;99891.81;;;4.25;62.99
41712;BME280;27399;51.516;13.670;2022-11-20T12:00:16;99890.94;;;4.28;62.94
41712;BME280;27399;51.516;13.670;2022-11-20T12:07:47;99882.78;;;4.00;63.39
41712;BME280;27399;51.516;13.670;2022-11-20T12:10:49;99879.47;;;4.24;63.59
41712;BME280;27399;51.516;13.670;2022-11-20T12:13:30;99871.59;;;4.29;63.91
41712;BME280;27399;51.516;13.670;2022-11-20T12:16:04;99874.38;;;4.44;64.18
41712;BME280;27399;51.516;13.670;2022-11-20T12:18:31;99867.19;;;4.26;63.66
41712;BME280;27399;51.516;13.670;2022-11-20T12:23:49;99870.03;;;4.56;63.97
41712;BME280;27399;51.516;13.670;2022-11-20T12:29:02;99867.47;;;4.65;63.56
41712;BME280;27399;51.516;13.670;2022-11-20T12:34:36;99868.31;;;4.61;63.96
41712;BME280;27399;51.516;13.670;2022-11-20T12:39:50;99880.53;;;4.43;64.17
41712;BME280;27399;51.516;13.670;2022-11-20T12:42:26;99873.59;;;4.61;63.42
41712;BME280;27399;51.516;13.670;2022-11-20T12:58:00;99867.06;;;4.12;64.12
41712;BME280;27399;51.516;13.670;2022-11-20T13:00:29;99861.88;;;4.23;63.77
41712;BME280;27399;51.516;13.670;2022-11-20T13:08:23;99859.09;;;4.05;64.48
41712;BME280;27399;51.516;13.670;2022-11-20T13:13:36;99861.00;;;4.26;64.74
41712;BME280;27399;51.516;13.670;2022-11-20T13:16:11;99852.00;;;3.99;65.84
41712;BME280;27399;51.516;13.670;2022-11-20T13:18:41;99845.09;;;4.16;65.42
41712;BME280;27399;51.516;13.670;2022-11-20T13:21:21;99856.38;;;3.97;65.78
41712;BME280;27399;51.516;13.670;2022-11-20T13:23:47;99846.88;;;4.19;65.52
41712;BME280;27399;51.516;13.670;2022-11-20T13:26:19;99856.44;;;4.05;65.55
41712;BME280;27399;51.516;13.670;2022-11-20T13:28:48;99859.88;;;3.96;65.66
41712;BME280;27399;51.516;13.670;2022-11-20T13:31:35;99861.91;;;4.26;64.82
41712;BME280;27399;51.516;13.670;2022-11-20T13:34:04;99857.44;;;4.16;63.78
41712;BME280;27399;51.516;13.670;2022-11-20T13:36:31;99857.41;;;4.14;62.81
41712;BME280;27399;51.516;13.670;2022-11-20T13:38:58;99847.88;;;4.33;63.45
41712;BME280;27399;51.516;13.670;2022-11-20T13:41:31;99856.47;;;4.11;63.25
41712;BME280;27399;51.516;13.670;2022-11-20T13:44:05;99845.31;;;4.41;63.20
41712;BME280;27399;51.516;13.670;2022-11-20T13:46:42;99843.56;;;4.45;63.76
41712;BME280;27399;51.516;13.670;2022-11-20T13:51:52;99849.66;;;4.36;64.83
41712;BME280;27399;51.516;13.670;2022-11-20T13:57:49;99852.44;;;4.55;65.52
41712;BME280;27399;51.516;13.670;2022-11-20T14:00:24;99841.88;;;4.56;65.77
41712;BME280;27399;51.516;13.670;2022-11-20T14:05:36;99844.59;;;4.72;63.87
41712;BME280;27399;51.516;13.670;2022-11-20T14:08:04;99840.97;;;4.54;63.67
41712;BME280;27399;51.516;13.670;2022-11-20T14:10:31;99828.78;;;4.76;63.10
41712;BME280;27399;51.516;13.670;2022-11-20T14:12:57;99833.09;;;4.59;63.48
41712;BME280;27399;51.516;13.670;2022-11-20T14:15:32;99825.13;;;4.53;63.21
41712;BME280;27399;51.516;13.670;2022-11-20T14:17:59;99824.31;;;4.66;64.12